createdAt,value
2022-08-07T00:00:40.180Z,59.98
2022-08-07T00:03:09.539Z,60.39
2022-08-07T00:05:39.136Z,60.46
2022-08-07T00:08:12.794Z,59.98
2022-08-07T00:10:48.342Z,60.63
2022-08-07T00:13:26.974Z,60.07
2022-08-07T00:15:56.829Z,60.45
2022-08-07T00:18:27.344Z,60.43
2022-08-07T00:21:02.001Z,60.84
2022-08-07T00:23:35.063Z,60.95
2022-08-07T00:26:18.924Z,60.91
2022-08-07T00:28:57.017Z,60.21
2022-08-07T00:31:38.104Z,61.12
2022-08-07T00:34:10.910Z,61.37
2022-08-07T00:36:43.277Z,61.07
2022-08-07T00:39:16.511Z,61.17
2022-08-07T00:41:53.599Z,61.37
2022-08-07T00:44:23.363Z,61.27
2022-08-07T00:46:55.859Z,61.34
2022-08-07T00:50:21.414Z,61.46
2022-08-07T00:52:13.839Z,61.36
2022-08-07T00:54:53.623Z,61.28
2022-08-07T00:57:25.195Z,61.16
2022-08-07T00:59:54.936Z,61.39
2022-08-07T01:02:28.664Z,61.30
2022-08-07T01:04:59.293Z,61.04
2022-08-07T01:07:29.605Z,61.23
2022-08-07T01:10:06.090Z,61.54
2022-08-07T01:12:39.793Z,61.50
2022-08-07T01:15:22.413Z,61.23
2022-08-07T01:18:04.867Z,61.33
2022-08-07T01:20:43.057Z,61.39
2022-08-07T01:23:14.439Z,61.54
2022-08-07T01:25:55.821Z,61.51
2022-08-07T01:28:25.019Z,61.45
2022-08-07T01:30:54.548Z,61.67
2022-08-07T01:33:53.740Z,61.91
2022-08-07T01:36:15.074Z,61.70
2022-08-07T01:38:47.369Z,62.24
2022-08-07T01:41:26.163Z,62.01
2022-08-07T01:43:55.539Z,61.93
2022-08-07T01:46:24.063Z,62.08
2022-08-07T01:48:54.059Z,62.17
2022-08-07T01:52:01.694Z,62.34
2022-08-07T01:54:33.190Z,62.15
2022-08-07T01:57:08.678Z,62.11
2022-08-07T01:59:55.289Z,62.32
2022-08-07T02:02:32.546Z,62.41
2022-08-07T02:05:47.497Z,62.39
2022-08-07T02:08:17.749Z,62.47
2022-08-07T02:10:55.426Z,62.41
2022-08-07T02:13:56.738Z,62.35
2022-08-07T02:16:28.359Z,62.45
2022-08-07T02:19:05.689Z,62.45
2022-08-07T02:21:55.097Z,62.46
2022-08-07T02:24:26.353Z,62.54
2022-08-07T02:27:01.385Z,62.32
2022-08-07T02:29:31.829Z,62.54
2022-08-07T02:32:01.619Z,62.36
2022-08-07T02:34:31.409Z,62.70
2022-08-07T02:37:00.969Z,62.44
2022-08-07T02:39:43.998Z,62.61
2022-08-07T02:42:21.559Z,62.67
2022-08-07T02:44:52.219Z,62.40
2022-08-07T02:47:23.609Z,62.75
2022-08-07T02:49:56.077Z,62.52
2022-08-07T02:52:33.860Z,62.29
2022-08-07T02:55:27.544Z,62.41
2022-08-07T02:58:03.087Z,62.52
2022-08-07T03:00:36.499Z,62.56
2022-08-07T03:03:13.418Z,62.47
2022-08-07T03:05:42.991Z,62.58
2022-08-07T03:08:13.395Z,62.67
2022-08-07T03:10:46.461Z,62.78
2022-08-07T03:13:19.625Z,62.51
2022-08-07T03:15:56.251Z,62.39
2022-08-07T03:18:34.743Z,62.77
2022-08-07T03:21:08.591Z,62.73
2022-08-07T03:24:20.528Z,62.54
2022-08-07T03:26:33.810Z,62.76
2022-08-07T03:29:05.450Z,62.76
2022-08-07T03:31:43.082Z,62.62
2022-08-07T03:34:22.039Z,62.78
2022-08-07T03:36:53.796Z,62.60
2022-08-07T03:39:46.117Z,63.09
2022-08-07T03:42:13.441Z,63.24
2022-08-07T03:44:47.213Z,63.08
2022-08-07T03:47:22.989Z,62.91
2022-08-07T03:49:52.339Z,63.13
2022-08-07T03:52:26.448Z,62.96
2022-08-07T03:54:58.963Z,63.05
2022-08-07T03:58:34.194Z,62.95
2022-08-07T04:00:33.617Z,63.04
2022-08-07T04:03:05.114Z,63.35
2022-08-07T04:05:41.056Z,63.11
2022-08-07T04:08:16.039Z,63.20
2022-08-07T04:10:54.527Z,63.08
2022-08-07T04:14:10.726Z,63.55
2022-08-07T04:16:30.911Z,63.39
2022-08-07T04:19:04.370Z,63.25
2022-08-07T04:21:48.197Z,63.43
2022-08-07T04:24:34.195Z,63.48
2022-08-07T04:27:15.270Z,63.14
2022-08-07T04:30:01.165Z,63.37
2022-08-07T04:32:35.202Z,63.29
2022-08-07T04:35:06.395Z,63.27
2022-08-07T04:38:01.060Z,63.47
2022-08-07T04:40:29.551Z,63.63
2022-08-07T04:43:02.169Z,63.43
2022-08-07T04:46:00.348Z,63.39
2022-08-07T04:48:39.951Z,63.36
2022-08-07T04:51:27.581Z,63.56
2022-08-07T04:54:06.187Z,63.70
2022-08-07T04:58:15.072Z,63.50
2022-08-07T05:00:09.539Z,63.54
2022-08-07T05:02:32.180Z,63.53
2022-08-07T05:05:11.584Z,63.48
2022-08-07T05:08:01.661Z,63.72
2022-08-07T05:10:35.400Z,63.69
2022-08-07T05:14:44.933Z,63.60
2022-08-07T05:15:59.630Z,63.66
2022-08-07T05:18:35.631Z,63.64
2022-08-07T05:21:07.721Z,63.55
2022-08-07T05:23:41.440Z,63.51
2022-08-07T05:26:23.671Z,63.69
2022-08-07T05:28:56.251Z,63.46
2022-08-07T05:31:35.067Z,63.63
2022-08-07T05:34:11.076Z,63.77
2022-08-07T05:36:44.820Z,63.40
2022-08-07T05:40:13.425Z,63.36
2022-08-07T05:42:12.379Z,63.26
2022-08-07T05:44:52.836Z,63.31
2022-08-07T05:47:38.553Z,63.26
2022-08-07T05:50:21.910Z,63.25
2022-08-07T05:52:51.789Z,63.45
2022-08-07T05:55:20.410Z,63.38
2022-08-07T05:57:49.469Z,63.26
2022-08-07T06:00:19.971Z,63.27
2022-08-07T06:02:51.929Z,63.06
2022-08-07T06:05:28.144Z,63.37
2022-08-07T06:08:14.294Z,63.08
2022-08-07T06:10:52.059Z,63.08
2022-08-07T06:14:12.583Z,62.97
2022-08-07T06:16:13.474Z,62.88
2022-08-07T06:18:43.333Z,62.83
2022-08-07T06:22:14.499Z,62.68
2022-08-07T06:24:37.657Z,62.63
2022-08-07T06:26:59.869Z,62.56
2022-08-07T06:29:34.080Z,62.86
2022-08-07T06:32:02.730Z,62.66
2022-08-07T06:34:33.056Z,62.54
2022-08-07T06:37:02.748Z,62.40
2022-08-07T06:40:17.435Z,62.07
2022-08-07T06:42:35.343Z,61.94
2022-08-07T06:45:06.009Z,61.61
2022-08-07T06:47:56.934Z,61.21
2022-08-07T06:50:26.602Z,60.89
2022-08-07T06:52:56.723Z,60.85
2022-08-07T06:55:47.904Z,60.71
2022-08-07T06:58:27.393Z,60.62
2022-08-07T07:00:59.460Z,60.14
2022-08-07T07:03:47.605Z,60.09
2022-08-07T07:06:23.815Z,59.68
2022-08-07T07:08:54.650Z,59.58
2022-08-07T07:12:08.337Z,58.84
2022-08-07T07:14:15.765Z,58.36
2022-08-07T07:16:53.826Z,57.49
2022-08-07T07:19:55.612Z,57.43
2022-08-07T07:22:33.874Z,56.82
2022-08-07T07:26:33.289Z,56.58
2022-08-07T07:28:29.454Z,55.57
2022-08-07T07:30:57.487Z,55.40
2022-08-07T07:33:29.855Z,55.07
2022-08-07T07:36:05.419Z,54.89
2022-08-07T07:38:45.874Z,54.83
2022-08-07T07:41:18.119Z,56.61
2022-08-07T07:44:17.960Z,56.04
2022-08-07T07:46:55.295Z,56.04
2022-08-07T07:50:32.740Z,55.66
2022-08-07T07:52:22.274Z,55.71
2022-08-07T07:54:52.821Z,55.38
2022-08-07T07:57:51.988Z,55.66
2022-08-07T08:00:28.871Z,55.50
2022-08-07T08:03:06.264Z,55.46
2022-08-07T08:05:50.875Z,55.52
2022-08-07T08:08:34.790Z,55.55
2022-08-07T08:11:08.482Z,55.37
2022-08-07T08:13:53.305Z,55.58
2022-08-07T08:16:31.242Z,55.29
2022-08-07T08:19:09.697Z,55.10
2022-08-07T08:22:07.948Z,55.07
2022-08-07T08:25:24.770Z,55.87
2022-08-07T08:28:01.810Z,55.84
2022-08-07T08:30:35.099Z,55.76
2022-08-07T08:33:17.120Z,55.94
2022-08-07T08:35:50.606Z,56.47
2022-08-07T08:38:25.792Z,56.15
2022-08-07T08:41:03.046Z,55.70
2022-08-07T08:43:41.968Z,54.71
2022-08-07T08:46:16.016Z,55.49
2022-08-07T08:48:53.125Z,54.53
2022-08-07T08:51:49.473Z,55.16
2022-08-07T08:54:25.164Z,55.40
2022-08-07T08:56:55.444Z,55.68
2022-08-07T08:59:30.594Z,55.72
2022-08-07T09:02:35.228Z,55.70
2022-08-07T09:05:36.816Z,55.43
2022-08-07T09:08:28.427Z,55.56
2022-08-07T09:11:08.354Z,56.06
2022-08-07T09:13:44.756Z,56.29
2022-08-07T09:16:29.833Z,56.36
2022-08-07T09:19:51.183Z,55.98
2022-08-07T09:24:33.627Z,55.97
2022-08-07T09:25:17.263Z,55.38
2022-08-07T09:28:00.017Z,55.41
2022-08-07T09:30:38.355Z,55.61
2022-08-07T09:33:24.422Z,56.40
2022-08-07T09:36:15.428Z,56.80
2022-08-07T09:38:53.687Z,57.13
2022-08-07T09:41:36.157Z,57.96
2022-08-07T09:44:32.684Z,56.69
2022-08-07T09:47:51.544Z,57.30
2022-08-07T09:50:22.408Z,56.24
2022-08-07T09:53:01.276Z,56.97
2022-08-07T09:56:02.863Z,57.17
2022-08-07T09:59:13.817Z,57.32
2022-08-07T10:01:59.577Z,57.46
2022-08-07T10:04:57.222Z,57.53
2022-08-07T10:07:52.619Z,57.53
2022-08-07T10:10:36.508Z,57.72
2022-08-07T10:14:00.243Z,56.07
2022-08-07T10:16:49.337Z,58.15
2022-08-07T10:19:38.671Z,59.58
2022-08-07T10:22:24.862Z,55.61
2022-08-07T10:25:22.838Z,54.96
2022-08-07T10:28:12.592Z,54.65
2022-08-07T10:31:00.440Z,55.46
2022-08-07T10:34:06.569Z,58.83
2022-08-07T10:36:58.645Z,56.90
2022-08-07T10:39:41.610Z,54.40
2022-08-07T10:42:36.497Z,54.62
2022-08-07T10:45:16.846Z,55.01
2022-08-07T10:48:04.006Z,54.47
2022-08-07T10:50:42.629Z,54.74
2022-08-07T10:53:27.666Z,57.58
2022-08-07T10:56:20.694Z,55.79
2022-08-07T10:59:13.472Z,55.90
2022-08-07T11:02:04.870Z,55.32
2022-08-07T11:05:18.125Z,55.11
2022-08-07T11:08:03.449Z,55.36
2022-08-07T11:14:43.773Z,55.44
2022-08-07T11:16:54.789Z,54.91
2022-08-07T11:19:32.454Z,57.60
2022-08-07T11:22:26.366Z,55.00
2022-08-07T11:25:09.823Z,57.48
2022-08-07T11:28:02.979Z,55.63
2022-08-07T11:30:45.521Z,55.15
2022-08-07T11:33:48.755Z,55.98
2022-08-07T11:36:38.094Z,55.04
2022-08-07T11:40:01.306Z,55.43
2022-08-07T11:42:29.569Z,56.95
2022-08-07T11:45:12.629Z,54.25
2022-08-07T11:48:18.274Z,54.06
2022-08-07T11:51:44.945Z,54.21
2022-08-07T11:54:35.289Z,57.26
2022-08-07T11:57:16.166Z,56.08
2022-08-07T12:00:10.852Z,57.85
2022-08-07T12:03:44.713Z,52.93
2022-08-07T12:06:38.863Z,53.45
2022-08-07T12:09:16.106Z,53.57
2022-08-07T12:12:09.402Z,53.45
2022-08-07T12:15:08.207Z,53.58
2022-08-07T12:18:22.043Z,53.51
2022-08-07T12:21:55.739Z,53.82
2022-08-07T12:26:21.471Z,54.28
2022-08-07T12:28:49.849Z,53.84
2022-08-07T12:32:02.493Z,53.66
2022-08-07T12:34:38.296Z,53.93
2022-08-07T12:37:16.492Z,53.85
2022-08-07T12:40:19.114Z,54.16
2022-08-07T12:43:00.899Z,54.26
2022-08-07T12:45:39.560Z,54.01
2022-08-07T12:48:28.402Z,54.17
2022-08-07T12:51:17.399Z,54.67
2022-08-07T12:54:23.856Z,54.11
2022-08-07T12:56:51.280Z,53.99
2022-08-07T12:59:53.772Z,54.33
2022-08-07T13:02:40.609Z,54.07
2022-08-07T13:06:03.376Z,54.13
2022-08-07T13:08:55.815Z,54.16
2022-08-07T13:12:02.466Z,54.07
2022-08-07T13:14:51.158Z,54.20
2022-08-07T13:17:41.161Z,54.13
2022-08-07T13:20:27.876Z,56.61
2022-08-07T13:23:59.816Z,56.95
2022-08-07T13:26:05.685Z,57.50
2022-08-07T13:28:58.404Z,54.38
2022-08-07T13:31:57.953Z,54.21
2022-08-07T13:34:44.862Z,53.32
2022-08-07T13:37:32.602Z,53.36
2022-08-07T13:40:35.555Z,53.84
2022-08-07T13:43:17.056Z,53.37
2022-08-07T13:46:11.801Z,53.49
2022-08-07T13:48:58.600Z,53.36
2022-08-07T13:52:05.205Z,56.04
2022-08-07T13:54:36.596Z,55.25
2022-08-07T13:57:14.465Z,52.94
2022-08-07T13:59:57.106Z,52.91
2022-08-07T14:02:49.166Z,52.44
2022-08-07T14:05:37.262Z,54.26
2022-08-07T14:08:19.466Z,52.24
2022-08-07T14:11:15.405Z,52.21
2022-08-07T14:14:25.159Z,54.24
2022-08-07T14:17:51.651Z,52.65
2022-08-07T14:20:41.712Z,52.48
2022-08-07T14:24:00.200Z,51.78
2022-08-07T14:26:52.824Z,51.79
2022-08-07T14:30:10.421Z,51.92
2022-08-07T14:32:31.440Z,51.89
2022-08-07T14:35:08.967Z,51.66
2022-08-07T14:38:05.559Z,52.33
2022-08-07T14:40:41.825Z,52.37
2022-08-07T14:43:55.552Z,51.71
2022-08-07T14:46:52.050Z,52.08
2022-08-07T14:49:57.995Z,54.45
2022-08-07T14:52:34.318Z,52.14
2022-08-07T14:55:03.974Z,52.34
2022-08-07T14:57:58.812Z,55.64
2022-08-07T15:00:34.715Z,51.30
2022-08-07T15:03:17.466Z,51.29
2022-08-07T15:06:22.306Z,51.76
2022-08-07T15:08:54.624Z,54.23
2022-08-07T15:11:54.194Z,52.14
2022-08-07T15:14:30.406Z,54.85
2022-08-07T15:17:04.381Z,56.19
2022-08-07T15:20:33.021Z,52.63
2022-08-07T15:25:42.653Z,52.15
2022-08-07T15:31:07.836Z,56.28
2022-08-07T15:33:48.387Z,55.66
2022-08-07T15:37:03.260Z,56.43
2022-08-07T15:39:20.912Z,54.11
2022-08-07T15:42:44.295Z,55.61
2022-08-07T15:44:59.767Z,56.38
2022-08-07T15:48:00.964Z,52.20
2022-08-07T15:50:37.735Z,55.55
2022-08-07T15:57:06.245Z,56.31
2022-08-07T15:59:45.125Z,51.52
2022-08-07T16:03:21.611Z,50.51
2022-08-07T16:11:17.495Z,49.53
2022-08-07T16:21:44.028Z,48.13
2022-08-07T16:23:58.629Z,46.96
2022-08-07T16:27:17.865Z,46.10
2022-08-07T16:30:35.337Z,46.26
2022-08-07T16:34:02.799Z,46.46
2022-08-07T16:38:04.005Z,45.81
2022-08-07T16:40:57.225Z,45.99
2022-08-07T16:44:47.399Z,45.89
2022-08-07T16:47:51.593Z,48.62
2022-08-07T16:51:20.641Z,48.08
2022-08-07T16:54:11.462Z,47.81
2022-08-07T16:58:02.781Z,47.41
2022-08-07T17:00:29.488Z,49.06
2022-08-07T17:03:59.443Z,47.77
2022-08-07T17:06:31.119Z,52.33
2022-08-07T17:10:08.441Z,52.37
2022-08-07T17:12:36.761Z,52.94
2022-08-07T17:15:10.356Z,52.99
2022-08-07T17:18:11.537Z,50.49
2022-08-07T17:21:19.034Z,49.86
2022-08-07T17:24:34.633Z,49.13
2022-08-07T17:27:20.033Z,51.24
2022-08-07T17:30:15.610Z,53.79
2022-08-07T17:34:08.747Z,48.99
2022-08-07T17:36:58.051Z,53.33
2022-08-07T17:39:57.676Z,50.70
2022-08-07T17:42:59.066Z,49.83
2022-08-07T17:45:39.310Z,51.18
2022-08-07T17:48:31.190Z,53.54
2022-08-07T17:51:11.598Z,55.22
2022-08-07T17:54:01.081Z,52.35
2022-08-07T17:56:36.364Z,54.43
2022-08-07T17:59:35.942Z,54.94
2022-08-07T18:02:15.542Z,50.69
2022-08-07T18:04:53.980Z,51.09
2022-08-07T18:07:44.837Z,50.43
2022-08-07T18:10:32.239Z,50.95
2022-08-07T18:13:23.176Z,51.80
2022-08-07T18:16:32.589Z,50.89
2022-08-07T18:21:06.881Z,50.83
2022-08-07T18:22:17.636Z,52.04
2022-08-07T18:25:19.189Z,55.55
2022-08-07T18:28:35.413Z,52.32
2022-08-07T18:31:33.906Z,52.62
2022-08-07T18:34:35.741Z,49.79
2022-08-07T18:38:56.014Z,53.90
2022-08-07T18:41:09.261Z,51.40
2022-08-07T18:43:57.601Z,52.56
2022-08-07T18:46:42.883Z,48.81
2022-08-07T18:50:30.473Z,49.75
2022-08-07T18:52:54.345Z,49.80
2022-08-07T18:55:42.487Z,49.63
2022-08-07T18:58:41.749Z,49.52
2022-08-07T19:02:42.503Z,50.01
2022-08-07T19:06:04.103Z,50.78
2022-08-07T19:08:42.840Z,49.96
2022-08-07T19:11:36.082Z,51.52
2022-08-07T19:14:19.869Z,50.14
2022-08-07T19:17:06.942Z,50.23
2022-08-07T19:19:49.592Z,50.38
2022-08-07T19:22:30.710Z,50.86
2022-08-07T19:25:06.461Z,51.12
2022-08-07T19:29:03.358Z,51.30
2022-08-07T19:31:06.207Z,51.63
2022-08-07T19:33:33.254Z,51.74
2022-08-07T19:36:05.139Z,51.84
2022-08-07T19:38:53.305Z,52.13
2022-08-07T19:41:44.596Z,52.25
2022-08-07T19:44:31.399Z,52.27
2022-08-07T19:47:07.720Z,53.05
2022-08-07T19:49:58.323Z,53.25
2022-08-07T19:52:32.665Z,54.06
2022-08-07T19:55:03.101Z,54.48
2022-08-07T19:58:03.205Z,54.46
2022-08-07T20:00:34.501Z,54.38
2022-08-07T20:03:35.530Z,55.29
2022-08-07T20:06:03.367Z,54.10
2022-08-07T20:08:38.191Z,53.99
2022-08-07T20:11:34.232Z,53.86
2022-08-07T20:14:13.759Z,55.07
2022-08-07T20:16:54.328Z,54.69
2022-08-07T20:20:16.780Z,54.36
2022-08-07T20:22:50.120Z,54.22
2022-08-07T20:25:24.680Z,53.91
2022-08-07T20:28:10.652Z,54.43
2022-08-07T20:30:50.942Z,54.53
2022-08-07T20:33:38.149Z,53.97
2022-08-07T20:36:10.940Z,54.65
2022-08-07T20:39:00.554Z,53.81
2022-08-07T20:41:40.714Z,53.87
2022-08-07T20:44:13.284Z,54.27
2022-08-07T20:46:48.590Z,54.96
2022-08-07T20:49:58.897Z,55.64
2022-08-07T20:52:51.045Z,55.21
2022-08-07T20:55:35.836Z,55.07
2022-08-07T20:58:19.261Z,54.71
2022-08-07T21:01:07.480Z,54.91
2022-08-07T21:04:22.779Z,54.74
2022-08-07T21:07:14.786Z,54.72
2022-08-07T21:10:11.980Z,54.58
2022-08-07T21:12:44.920Z,55.15
2022-08-07T21:15:19.461Z,54.78
2022-08-07T21:18:20.370Z,54.38
2022-08-07T21:21:13.880Z,54.16
2022-08-07T21:24:11.515Z,54.37
2022-08-07T21:27:01.680Z,54.61
2022-08-07T21:29:54.830Z,54.16
2022-08-07T21:32:50.926Z,55.52
2022-08-07T21:36:05.087Z,55.55
2022-08-07T21:38:44.382Z,55.53
2022-08-07T21:41:25.122Z,55.85
2022-08-07T21:44:08.635Z,56.72
2022-08-07T21:46:53.990Z,55.92
2022-08-07T21:50:02.771Z,55.66
2022-08-07T21:52:45.925Z,55.76
2022-08-07T21:55:30.232Z,55.44
2022-08-07T21:58:29.904Z,55.41
2022-08-07T22:01:13.825Z,54.99
2022-08-07T22:04:00.643Z,54.50
2022-08-07T22:06:45.263Z,54.73
2022-08-07T22:09:25.781Z,56.17
2022-08-07T22:12:10.339Z,55.56
2022-08-07T22:14:59.955Z,56.00
2022-08-07T22:17:43.481Z,54.88
2022-08-07T22:20:24.706Z,54.68
2022-08-07T22:23:01.950Z,54.66
2022-08-07T22:25:42.260Z,54.46
2022-08-07T22:28:30.816Z,54.08
2022-08-07T22:31:45.480Z,54.48
2022-08-07T22:34:13.242Z,54.14
2022-08-07T22:36:52.898Z,53.98
2022-08-07T22:39:52.448Z,54.65
2022-08-07T22:42:34.001Z,54.35
2022-08-07T22:46:21.656Z,54.64
2022-08-07T22:48:55.434Z,56.44
2022-08-07T22:51:57.590Z,56.70
2022-08-07T22:55:22.408Z,56.67
2022-08-07T22:58:34.582Z,57.07
2022-08-07T23:01:51.019Z,57.61
2022-08-07T23:04:58.099Z,57.76
2022-08-07T23:08:12.203Z,57.73
2022-08-07T23:11:13.159Z,58.04
2022-08-07T23:14:47.457Z,57.86
2022-08-07T23:18:21.470Z,57.99
2022-08-07T23:21:36.630Z,58.29
2022-08-07T23:25:12.090Z,58.57
2022-08-07T23:28:48.946Z,58.50
2022-08-07T23:34:18.929Z,58.52
2022-08-07T23:36:01.582Z,58.84
2022-08-07T23:39:21.959Z,59.02
2022-08-07T23:42:34.659Z,59.18
2022-08-07T23:46:03.017Z,59.43
2022-08-07T23:49:13.747Z,59.16
2022-08-07T23:53:01.973Z,59.20
2022-08-07T23:54:53.929Z,59.26
2022-08-07T23:57:32.314Z,59.42
